createdAt,value
2022-12-03T00:02:25.324Z,100591.41
2022-12-03T00:04:52.615Z,100591.41
2022-12-03T00:07:19.826Z,100588.97
2022-12-03T00:09:46.838Z,100576.88
2022-12-03T00:12:13.906Z,100581.88
2022-12-03T00:14:44.669Z,100585.19
2022-12-03T00:17:12.083Z,100595.25
2022-12-03T00:19:38.996Z,100602.28
2022-12-03T00:22:06.027Z,100595.16
2022-12-03T00:24:33.236Z,100601.13
2022-12-03T00:27:00.175Z,100604.41
2022-12-03T00:29:27.135Z,100597.56
2022-12-03T00:31:54.130Z,100598.84
2022-12-03T00:34:22.582Z,100607.41
2022-12-03T00:36:49.672Z,100573.59
2022-12-03T00:39:16.592Z,100596.19
2022-12-03T00:41:43.540Z,100599.97
2022-12-03T00:44:12.143Z,100607.19
2022-12-03T00:46:39.167Z,100596.00
2022-12-03T00:49:06.562Z,100599.31
2022-12-03T00:51:36.070Z,100604.34
2022-12-03T00:54:03.228Z,100594.19
2022-12-03T00:56:30.231Z,100607.28
2022-12-03T00:58:57.214Z,100601.88
2022-12-03T01:01:24.253Z,100602.59
2022-12-03T01:03:51.391Z,100611.56
2022-12-03T01:06:18.270Z,100611.56
2022-12-03T01:08:45.273Z,100615.81
2022-12-03T01:11:30.866Z,100599.03
2022-12-03T01:13:57.790Z,100616.59
2022-12-03T01:16:24.828Z,100605.38
2022-12-03T01:18:53.116Z,100602.97
2022-12-03T01:21:20.343Z,100607.41
2022-12-03T01:23:47.331Z,100594.25
2022-12-03T01:26:14.461Z,100592.06
2022-12-03T01:28:44.870Z,100571.09
2022-12-03T01:31:30.482Z,100596.19
2022-12-03T01:33:57.485Z,100592.47
2022-12-03T01:36:24.491Z,100599.00
2022-12-03T01:38:51.451Z,100581.81
2022-12-03T01:41:19.842Z,100574.13
2022-12-03T01:43:48.199Z,100599.19
2022-12-03T01:46:23.470Z,100582.84
2022-12-03T01:48:54.259Z,100593.94
2022-12-03T01:51:21.483Z,100599.91
2022-12-03T01:53:49.079Z,100598.34
2022-12-03T01:56:18.434Z,100581.47
2022-12-03T01:58:47.362Z,100602.47
2022-12-03T02:01:16.853Z,100595.44
2022-12-03T02:03:45.057Z,100590.44
2022-12-03T02:06:20.942Z,100579.44
2022-12-03T02:08:48.731Z,100593.75
2022-12-03T02:11:34.448Z,100588.50
2022-12-03T02:14:09.078Z,100585.25
2022-12-03T02:16:38.201Z,100581.25
2022-12-03T02:19:34.978Z,100581.03
2022-12-03T02:22:08.221Z,100577.13
2022-12-03T02:24:46.193Z,100580.19
2022-12-03T02:27:13.431Z,100579.69
2022-12-03T02:29:40.365Z,100581.84
2022-12-03T02:32:07.588Z,100577.97
2022-12-03T02:34:34.566Z,100571.34
2022-12-03T02:37:02.291Z,100572.75
2022-12-03T02:39:29.408Z,100570.50
2022-12-03T02:42:14.975Z,100571.16
2022-12-03T02:44:42.017Z,100556.31
2022-12-03T02:47:09.296Z,100578.09
2022-12-03T02:49:36.391Z,100574.22
2022-12-03T02:52:03.897Z,100565.03
2022-12-03T02:54:31.436Z,100574.97
2022-12-03T02:56:58.505Z,100585.88
2022-12-03T02:59:25.625Z,100578.59
2022-12-03T03:01:52.702Z,100580.19
2022-12-03T03:04:19.931Z,100580.19
2022-12-03T03:06:47.042Z,100581.38
2022-12-03T03:09:14.064Z,100585.09
2022-12-03T03:11:41.022Z,100578.34
2022-12-03T03:14:07.914Z,100589.03
2022-12-03T03:16:35.300Z,100593.94
2022-12-03T03:19:04.470Z,100586.38
2022-12-03T03:21:31.516Z,100584.16
2022-12-03T03:23:58.384Z,100580.53
2022-12-03T03:26:25.594Z,100577.63
2022-12-03T03:28:52.949Z,100599.00
2022-12-03T03:31:24.972Z,100598.22
2022-12-03T03:33:52.168Z,100604.00
2022-12-03T03:36:19.995Z,100604.53
2022-12-03T03:38:47.782Z,100600.50
2022-12-03T03:41:16.099Z,100573.78
2022-12-03T03:43:45.857Z,100581.38
2022-12-03T03:46:14.223Z,100559.72
2022-12-03T03:48:43.320Z,100578.31
2022-12-03T03:51:11.497Z,100570.53
2022-12-03T03:53:44.474Z,100566.34
2022-12-03T03:56:12.356Z,100577.13
2022-12-03T03:58:39.441Z,100557.81
2022-12-03T04:01:06.890Z,100579.16
2022-12-03T04:03:34.719Z,100584.50
2022-12-03T04:06:02.027Z,100571.84
2022-12-03T04:08:28.981Z,100579.97
2022-12-03T04:11:14.699Z,100583.41
2022-12-03T04:13:41.615Z,100590.91
2022-12-03T04:16:08.678Z,100563.66
2022-12-03T04:18:44.686Z,100589.19
2022-12-03T04:21:41.316Z,100585.91
2022-12-03T04:24:10.628Z,100580.53
2022-12-03T04:26:56.232Z,100556.75
2022-12-03T04:29:23.327Z,100556.75
2022-12-03T04:32:09.382Z,100562.66
2022-12-03T04:34:55.315Z,100579.50
2022-12-03T04:37:22.524Z,100562.31
2022-12-03T04:39:49.489Z,100559.00
2022-12-03T04:42:16.594Z,100578.75
2022-12-03T04:44:43.552Z,100572.03
2022-12-03T04:47:18.372Z,100566.47
2022-12-03T04:49:47.750Z,100570.31
2022-12-03T04:52:17.124Z,100575.66
2022-12-03T04:54:44.278Z,100578.22
2022-12-03T04:57:11.777Z,100578.75
2022-12-03T04:59:39.637Z,100537.19
2022-12-03T05:02:07.484Z,100589.38
2022-12-03T05:04:34.982Z,100571.44
2022-12-03T05:07:02.249Z,100592.59
2022-12-03T05:09:29.245Z,100582.25
2022-12-03T05:11:56.211Z,100577.34
2022-12-03T05:14:23.130Z,100569.13
2022-12-03T05:16:50.086Z,100566.34
2022-12-03T05:19:17.044Z,100568.03
2022-12-03T05:21:44.025Z,100565.16
2022-12-03T05:24:11.039Z,100578.81
2022-12-03T05:26:37.913Z,100575.59
2022-12-03T05:29:04.861Z,100570.47
2022-12-03T05:31:31.790Z,100575.91
2022-12-03T05:33:58.822Z,100583.06
2022-12-03T05:36:25.924Z,100583.69
2022-12-03T05:38:52.963Z,100557.31
2022-12-03T05:41:38.481Z,100584.88
2022-12-03T05:44:05.383Z,100586.34
2022-12-03T05:46:33.328Z,100587.56
2022-12-03T05:49:00.348Z,100580.53
2022-12-03T05:51:27.439Z,100581.19
2022-12-03T05:53:54.523Z,100561.88
2022-12-03T05:56:21.475Z,100588.31
2022-12-03T05:58:48.582Z,100582.81
2022-12-03T06:01:15.513Z,100574.47
2022-12-03T06:03:42.566Z,100584.56
2022-12-03T06:06:09.726Z,100575.50
2022-12-03T06:08:36.786Z,100597.94
2022-12-03T06:11:04.010Z,100594.75
2022-12-03T06:13:30.960Z,100597.78
2022-12-03T06:15:58.016Z,100582.94
2022-12-03T06:18:25.031Z,100559.97
2022-12-03T06:20:52.170Z,100588.56
2022-12-03T06:23:19.290Z,100581.25
2022-12-03T06:25:46.224Z,100570.25
2022-12-03T06:28:13.244Z,100591.06
2022-12-03T06:30:40.454Z,100591.22
2022-12-03T06:33:07.457Z,100564.16
2022-12-03T06:35:34.375Z,100554.44
2022-12-03T06:38:01.438Z,100595.09
2022-12-03T06:40:28.490Z,100600.53
2022-12-03T06:42:55.625Z,100605.97
2022-12-03T06:45:22.638Z,100590.59
2022-12-03T06:47:49.521Z,100608.31
2022-12-03T06:50:16.689Z,100597.88
2022-12-03T06:52:43.639Z,100601.72
2022-12-03T06:55:10.600Z,100607.72
2022-12-03T06:57:37.737Z,100600.50
2022-12-03T07:00:06.573Z,100591.47
2022-12-03T07:02:33.584Z,100593.91
2022-12-03T07:05:00.626Z,100590.63
2022-12-03T07:07:27.675Z,100589.25
2022-12-03T07:09:54.646Z,100555.31
2022-12-03T07:12:22.058Z,100593.38
2022-12-03T07:14:49.014Z,100586.38
2022-12-03T07:17:15.988Z,100579.47
2022-12-03T07:19:43.197Z,100594.75
2022-12-03T07:22:10.123Z,100601.59
2022-12-03T07:24:37.081Z,100609.13
2022-12-03T07:27:04.122Z,100607.28
2022-12-03T07:29:31.043Z,100612.25
2022-12-03T07:31:58.072Z,100595.56
2022-12-03T07:34:25.079Z,100607.91
2022-12-03T07:36:52.082Z,100576.75
2022-12-03T07:39:19.002Z,100609.19
2022-12-03T07:41:45.936Z,100604.41
2022-12-03T07:44:14.715Z,100606.00
2022-12-03T07:46:42.647Z,100594.38
2022-12-03T07:49:09.674Z,100601.34
2022-12-03T07:51:36.683Z,100582.22
2022-12-03T07:54:04.435Z,100591.53
2022-12-03T07:56:31.366Z,100606.06
2022-12-03T07:58:58.375Z,100597.38
2022-12-03T08:01:25.430Z,100596.41
2022-12-03T08:03:52.380Z,100569.50
2022-12-03T08:06:19.432Z,100590.13
2022-12-03T08:08:46.376Z,100602.66
2022-12-03T08:11:15.270Z,100597.41
2022-12-03T08:13:42.648Z,100603.41
2022-12-03T08:16:21.255Z,100616.06
2022-12-03T08:18:49.592Z,100600.06
2022-12-03T08:21:19.102Z,100609.59
2022-12-03T08:23:46.096Z,100603.91
2022-12-03T08:26:21.956Z,100589.75
2022-12-03T08:28:49.480Z,100602.25
2022-12-03T08:31:29.316Z,100588.56
2022-12-03T08:34:15.770Z,100620.75
2022-12-03T08:36:42.712Z,100610.78
2022-12-03T08:39:36.047Z,100561.44
2022-12-03T08:42:31.568Z,100611.53
2022-12-03T08:45:32.183Z,100614.47
2022-12-03T08:48:04.079Z,100611.94
2022-12-03T08:50:33.969Z,100604.41
2022-12-03T08:53:12.149Z,100603.13
2022-12-03T08:55:45.757Z,100608.31
2022-12-03T08:58:23.335Z,100581.63
2022-12-03T09:00:57.113Z,100596.69
2022-12-03T09:03:24.796Z,100579.94
2022-12-03T09:05:51.859Z,100605.34
2022-12-03T09:08:18.922Z,100614.25
2022-12-03T09:10:45.966Z,100607.38
2022-12-03T09:13:12.883Z,100614.84
2022-12-03T09:15:40.033Z,100590.72
2022-12-03T09:18:07.132Z,100600.47
2022-12-03T09:20:34.056Z,100600.97
2022-12-03T09:23:01.177Z,100609.09
2022-12-03T09:25:28.392Z,100592.75
2022-12-03T09:27:55.544Z,100617.53
2022-12-03T09:30:22.625Z,100593.31
2022-12-03T09:32:49.691Z,100593.84
2022-12-03T09:35:16.807Z,100602.03
2022-12-03T09:37:44.006Z,100594.03
2022-12-03T09:40:12.246Z,100595.50
2022-12-03T09:42:39.920Z,100593.72
2022-12-03T09:45:11.071Z,100591.25
2022-12-03T09:47:45.281Z,100583.50
2022-12-03T09:50:15.279Z,100587.06
2022-12-03T09:52:42.412Z,100582.09
2022-12-03T09:55:17.486Z,100576.53
2022-12-03T09:57:44.631Z,100571.53
2022-12-03T10:00:19.494Z,100580.75
2022-12-03T10:02:48.882Z,100571.81
2022-12-03T10:05:18.138Z,100561.94
2022-12-03T10:07:45.290Z,100552.25
2022-12-03T10:10:24.181Z,100561.22
2022-12-03T10:12:52.623Z,100557.47
2022-12-03T10:15:23.225Z,100564.69
2022-12-03T10:17:54.753Z,100536.88
2022-12-03T10:20:24.111Z,100550.88
2022-12-03T10:22:51.230Z,100555.59
2022-12-03T10:25:23.494Z,100538.91
2022-12-03T10:28:01.528Z,100550.34
2022-12-03T10:30:31.339Z,100549.03
2022-12-03T10:33:02.831Z,100548.94
2022-12-03T10:35:41.459Z,100525.38
2022-12-03T10:38:19.599Z,100525.41
2022-12-03T10:40:46.956Z,100536.94
2022-12-03T10:43:23.285Z,100528.63
2022-12-03T10:46:04.226Z,100531.97
2022-12-03T10:48:31.798Z,100529.16
2022-12-03T10:51:07.626Z,100514.34
2022-12-03T10:53:36.714Z,100520.03
2022-12-03T10:56:06.732Z,100493.00
2022-12-03T10:58:42.301Z,100498.13
2022-12-03T11:01:18.704Z,100490.78
2022-12-03T11:03:46.613Z,100500.22
2022-12-03T11:06:20.107Z,100495.09
2022-12-03T11:08:56.203Z,100505.59
2022-12-03T11:11:34.038Z,100502.03
2022-12-03T11:14:03.872Z,100510.06
2022-12-03T11:16:39.992Z,100506.53
2022-12-03T11:19:12.944Z,100510.78
2022-12-03T11:22:10.234Z,100505.56
2022-12-03T11:24:39.241Z,100496.09
2022-12-03T11:27:16.443Z,100495.25
2022-12-03T11:30:00.539Z,100498.53
2022-12-03T11:32:40.697Z,100500.81
2022-12-03T11:35:16.194Z,100490.72
2022-12-03T11:37:43.583Z,100500.34
2022-12-03T11:40:16.578Z,100504.13
2022-12-03T11:42:44.781Z,100497.09
2022-12-03T11:45:22.806Z,100491.47
2022-12-03T11:47:58.978Z,100487.94
2022-12-03T11:50:39.443Z,100466.63
2022-12-03T11:53:22.008Z,100463.00
2022-12-03T11:56:06.751Z,100474.53
2022-12-03T11:58:39.029Z,100472.88
2022-12-03T12:01:08.252Z,100496.06
2022-12-03T12:03:55.511Z,100502.97
2022-12-03T12:06:22.575Z,100489.44
2022-12-03T12:08:51.135Z,100483.84
2022-12-03T12:11:46.358Z,100488.16
2022-12-03T12:14:13.997Z,100461.13
2022-12-03T12:16:51.696Z,100471.59
2022-12-03T12:19:28.969Z,100468.41
2022-12-03T12:22:12.103Z,100466.72
2022-12-03T12:24:48.104Z,100466.22
2022-12-03T12:27:21.761Z,100466.81
2022-12-03T12:29:58.129Z,100463.44
2022-12-03T12:32:42.490Z,100459.56
2022-12-03T12:35:24.348Z,100442.19
2022-12-03T12:38:00.059Z,100462.84
2022-12-03T12:40:33.102Z,100455.66
2022-12-03T12:43:10.019Z,100434.78
2022-12-03T12:45:43.234Z,100407.53
2022-12-03T12:48:10.244Z,100448.13
2022-12-03T12:50:38.398Z,100443.78
2022-12-03T12:53:11.075Z,100437.22
2022-12-03T12:55:41.790Z,100437.69
2022-12-03T12:58:15.975Z,100441.81
2022-12-03T13:00:43.193Z,100448.88
2022-12-03T13:03:13.062Z,100450.72
2022-12-03T13:05:43.592Z,100454.22
2022-12-03T13:08:40.837Z,100444.28
2022-12-03T13:11:25.943Z,100448.41
2022-12-03T13:13:53.040Z,100426.03
2022-12-03T13:16:26.687Z,100440.97
2022-12-03T13:18:58.227Z,100407.41
2022-12-03T13:21:39.608Z,100454.34
2022-12-03T13:24:33.818Z,100452.63
2022-12-03T13:27:05.334Z,100439.78
2022-12-03T13:29:32.424Z,100443.84
2022-12-03T13:32:01.909Z,100442.16
2022-12-03T13:34:33.599Z,100429.00
2022-12-03T13:37:12.549Z,100437.34
2022-12-03T13:39:46.162Z,100433.75
2022-12-03T13:42:38.469Z,100426.25
2022-12-03T13:45:14.409Z,100415.16
2022-12-03T13:47:48.930Z,100433.22
2022-12-03T13:50:41.794Z,100414.59
2022-12-03T13:53:11.598Z,100423.47
2022-12-03T13:55:47.096Z,100421.34
2022-12-03T13:58:14.049Z,100423.16
2022-12-03T14:00:41.169Z,100406.09
2022-12-03T14:03:08.240Z,100419.28
2022-12-03T14:05:35.166Z,100417.69
2022-12-03T14:08:02.773Z,100417.81
2022-12-03T14:10:29.881Z,100406.56
2022-12-03T14:13:01.204Z,100416.91
2022-12-03T14:15:28.442Z,100408.53
2022-12-03T14:17:55.637Z,100402.06
2022-12-03T14:20:22.637Z,100429.75
2022-12-03T14:22:49.581Z,100407.97
2022-12-03T14:25:16.629Z,100437.88
2022-12-03T14:27:43.619Z,100433.00
2022-12-03T14:30:11.201Z,100411.50
2022-12-03T14:32:38.215Z,100447.50
2022-12-03T14:35:09.900Z,100446.53
2022-12-03T14:37:37.617Z,100450.53
2022-12-03T14:40:07.283Z,100451.25
2022-12-03T14:42:34.211Z,100461.25
2022-12-03T14:45:01.281Z,100465.16
2022-12-03T14:47:28.244Z,100444.16
2022-12-03T14:49:55.374Z,100457.03
2022-12-03T14:52:22.458Z,100456.66
2022-12-03T14:54:49.783Z,100465.41
2022-12-03T14:57:17.067Z,100458.38
2022-12-03T14:59:45.178Z,100463.09
2022-12-03T15:02:13.874Z,100456.78
2022-12-03T15:04:41.886Z,100462.78
2022-12-03T15:07:12.127Z,100462.16
2022-12-03T15:09:39.463Z,100461.03
2022-12-03T15:12:07.128Z,100440.59
2022-12-03T15:14:34.857Z,100449.88
2022-12-03T15:17:02.239Z,100431.97
2022-12-03T15:19:29.728Z,100449.88
2022-12-03T15:21:57.693Z,100457.53
2022-12-03T15:24:24.700Z,100455.81
2022-12-03T15:26:53.891Z,100465.56
2022-12-03T15:29:22.029Z,100445.09
2022-12-03T15:31:49.514Z,100460.91
2022-12-03T15:34:22.161Z,100468.34
2022-12-03T15:36:49.832Z,100458.88
2022-12-03T15:39:16.897Z,100464.22
2022-12-03T15:41:46.583Z,100468.34
2022-12-03T15:44:13.621Z,100467.38
2022-12-03T15:46:40.534Z,100462.50
2022-12-03T15:49:08.049Z,100461.03
2022-12-03T15:51:35.108Z,100463.13
2022-12-03T15:54:02.257Z,100460.91
2022-12-03T15:56:29.336Z,100459.94
2022-12-03T15:58:56.265Z,100449.34
2022-12-03T16:01:23.385Z,100410.66
2022-12-03T16:03:50.421Z,100452.03
2022-12-03T16:06:18.791Z,100447.94
2022-12-03T16:08:46.268Z,100443.13
2022-12-03T16:11:13.343Z,100462.84
2022-12-03T16:13:40.408Z,100472.06
2022-12-03T16:16:07.857Z,100460.38
2022-12-03T16:18:35.248Z,100454.69
2022-12-03T16:21:02.575Z,100463.19
2022-12-03T16:23:29.964Z,100433.88
2022-12-03T16:25:56.982Z,100457.88
2022-12-03T16:28:24.432Z,100455.56
2022-12-03T16:30:51.820Z,100449.97
2022-12-03T16:33:22.618Z,100410.03
2022-12-03T16:35:53.290Z,100445.94
2022-12-03T16:38:20.673Z,100451.44
2022-12-03T16:40:47.892Z,100444.47
2022-12-03T16:43:15.305Z,100447.97
2022-12-03T16:46:01.024Z,100461.41
2022-12-03T16:48:30.731Z,100447.25
2022-12-03T16:50:58.424Z,100468.06
2022-12-03T16:53:25.627Z,100441.78
2022-12-03T16:55:52.794Z,100461.34
2022-12-03T16:58:23.073Z,100464.66
2022-12-03T17:00:50.576Z,100470.75
2022-12-03T17:03:18.418Z,100471.00
2022-12-03T17:05:46.614Z,100447.63
2022-12-03T17:08:14.724Z,100452.22
2022-12-03T17:10:42.786Z,100468.56
2022-12-03T17:13:10.837Z,100456.72
2022-12-03T17:15:39.330Z,100481.78
2022-12-03T17:18:07.208Z,100480.19
2022-12-03T17:20:36.033Z,100477.41
2022-12-03T17:23:03.305Z,100481.31
2022-12-03T17:25:30.616Z,100474.91
2022-12-03T17:27:57.695Z,100468.31
2022-12-03T17:30:24.652Z,100464.88
2022-12-03T17:32:51.703Z,100479.41
2022-12-03T17:35:19.417Z,100479.63
2022-12-03T17:37:48.073Z,100466.03
2022-12-03T17:40:17.498Z,100461.63
2022-12-03T17:42:45.823Z,100463.84
2022-12-03T17:45:14.000Z,100457.88
2022-12-03T17:47:41.554Z,100451.50
2022-12-03T17:50:09.382Z,100456.94
2022-12-03T17:52:36.335Z,100457.69
2022-12-03T17:55:15.723Z,100464.53
2022-12-03T17:57:45.011Z,100449.69
2022-12-03T18:00:12.633Z,100454.56
2022-12-03T18:02:41.997Z,100454.34
2022-12-03T18:05:10.306Z,100444.19
2022-12-03T18:07:37.719Z,100469.25
2022-12-03T18:10:05.485Z,100473.41
2022-12-03T18:12:32.805Z,100467.72
2022-12-03T18:14:59.917Z,100459.06
2022-12-03T18:17:29.170Z,100471.72
2022-12-03T18:19:56.755Z,100474.50
2022-12-03T18:22:24.471Z,100481.44
2022-12-03T18:24:52.226Z,100481.34
2022-12-03T18:27:21.358Z,100483.91
2022-12-03T18:29:50.078Z,100486.09
2022-12-03T18:32:28.404Z,100494.94
2022-12-03T18:34:57.981Z,100490.44
2022-12-03T18:37:31.207Z,100478.53
2022-12-03T18:39:59.760Z,100474.13
2022-12-03T18:42:27.449Z,100473.44
2022-12-03T18:44:56.263Z,100467.09
2022-12-03T18:47:30.112Z,100473.69
2022-12-03T18:49:58.158Z,100463.97
2022-12-03T18:52:25.615Z,100463.13
2022-12-03T18:54:53.068Z,100462.16
2022-12-03T18:57:20.600Z,100464.94
2022-12-03T18:59:48.076Z,100448.00
2022-12-03T19:02:46.118Z,100446.44
2022-12-03T19:05:07.467Z,100445.38
2022-12-03T19:07:34.688Z,100455.94
2022-12-03T19:10:02.179Z,100443.41
2022-12-03T19:12:29.665Z,100441.22
2022-12-03T19:14:57.192Z,100448.00
2022-12-03T19:17:24.682Z,100438.28
2022-12-03T19:19:52.837Z,100446.41
2022-12-03T19:22:20.611Z,100453.72
2022-12-03T19:24:47.867Z,100454.69
2022-12-03T19:27:14.989Z,100459.47
2022-12-03T19:29:42.718Z,100452.84
2022-12-03T19:32:09.795Z,100440.69
2022-12-03T19:34:37.205Z,100449.28
2022-12-03T19:37:04.252Z,100468.91
2022-12-03T19:39:31.619Z,100461.72
2022-12-03T19:41:59.434Z,100469.88
2022-12-03T19:44:26.950Z,100450.78
2022-12-03T19:46:54.584Z,100474.00
2022-12-03T19:49:22.540Z,100476.28
